sensor_id;sensor_type;location;lat;lon;timestamp;P1;durP1;ratioP1;P2;durP2;ratioP2
22320;SDS011;11328;53.928;18.522;2023-02-15T00:00:06;36.58;;;23.35;;
22320;SDS011;11328;53.928;18.522;2023-02-15T00:02:36;37.90;;;21.52;;
22320;SDS011;11328;53.928;18.522;2023-02-15T00:05:05;36.13;;;22.20;;
22320;SDS011;11328;53.928;18.522;2023-02-15T00:07:33;36.03;;;22.13;;
22320;SDS011;11328;53.928;18.522;2023-02-15T00:10:00;39.28;;;23.02;;
22320;SDS011;11328;53.928;18.522;2023-02-15T00:12:27;38.70;;;23.63;;
22320;SDS011;11328;53.928;18.522;2023-02-15T00:14:54;37.78;;;24.50;;
22320;SDS011;11328;53.928;18.522;2023-02-15T00:17:22;36.60;;;23.65;;
22320;SDS011;11328;53.928;18.522;2023-02-15T00:19:49;35.50;;;22.17;;
22320;SDS011;11328;53.928;18.522;2023-02-15T00:22:16;33.45;;;21.85;;
22320;SDS011;11328;53.928;18.522;2023-02-15T00:24:43;31.85;;;21.35;;
22320;SDS011;11328;53.928;18.522;2023-02-15T00:27:10;39.00;;;21.98;;
22320;SDS011;11328;53.928;18.522;2023-02-15T00:29:37;36.00;;;22.42;;
22320;SDS011;11328;53.928;18.522;2023-02-15T00:32:04;34.10;;;21.45;;
22320;SDS011;11328;53.928;18.522;2023-02-15T00:34:32;39.05;;;22.02;;
22320;SDS011;11328;53.928;18.522;2023-02-15T00:36:59;40.72;;;22.60;;
22320;SDS011;11328;53.928;18.522;2023-02-15T00:39:26;38.15;;;22.50;;
22320;SDS011;11328;53.928;18.522;2023-02-15T00:41:55;34.97;;;21.55;;
22320;SDS011;11328;53.928;18.522;2023-02-15T00:44:22;34.22;;;21.27;;
22320;SDS011;11328;53.928;18.522;2023-02-15T00:46:49;33.38;;;20.58;;
22320;SDS011;11328;53.928;18.522;2023-02-15T00:49:16;32.20;;;21.23;;
22320;SDS011;11328;53.928;18.522;2023-02-15T00:51:43;34.20;;;21.20;;
22320;SDS011;11328;53.928;18.522;2023-02-15T00:54:10;34.10;;;21.55;;
22320;SDS011;11328;53.928;18.522;2023-02-15T00:56:37;33.03;;;20.73;;
22320;SDS011;11328;53.928;18.522;2023-02-15T00:59:04;32.97;;;20.80;;
22320;SDS011;11328;53.928;18.522;2023-02-15T01:01:31;33.65;;;20.17;;
22320;SDS011;11328;53.928;18.522;2023-02-15T01:03:58;32.60;;;20.38;;
22320;SDS011;11328;53.928;18.522;2023-02-15T01:06:25;32.55;;;20.83;;
22320;SDS011;11328;53.928;18.522;2023-02-15T01:08:53;31.83;;;21.15;;
22320;SDS011;11328;53.928;18.522;2023-02-15T01:11:20;36.00;;;20.77;;
22320;SDS011;11328;53.928;18.522;2023-02-15T01:13:49;36.13;;;20.15;;
22320;SDS011;11328;53.928;18.522;2023-02-15T01:16:19;30.35;;;19.63;;
22320;SDS011;11328;53.928;18.522;2023-02-15T01:18:48;35.20;;;20.35;;
22320;SDS011;11328;53.928;18.522;2023-02-15T01:21:17;30.52;;;19.67;;
22320;SDS011;11328;53.928;18.522;2023-02-15T01:23:47;32.30;;;19.98;;
22320;SDS011;11328;53.928;18.522;2023-02-15T01:26:15;31.48;;;19.17;;
22320;SDS011;11328;53.928;18.522;2023-02-15T01:28:43;32.58;;;19.10;;
22320;SDS011;11328;53.928;18.522;2023-02-15T01:31:12;32.42;;;19.73;;
22320;SDS011;11328;53.928;18.522;2023-02-15T01:33:43;31.42;;;19.77;;
22320;SDS011;11328;53.928;18.522;2023-02-15T01:36:11;33.42;;;19.10;;
22320;SDS011;11328;53.928;18.522;2023-02-15T01:38:38;30.52;;;19.77;;
22320;SDS011;11328;53.928;18.522;2023-02-15T01:41:09;31.88;;;19.63;;
22320;SDS011;11328;53.928;18.522;2023-02-15T01:43:54;35.05;;;19.95;;
22320;SDS011;11328;53.928;18.522;2023-02-15T01:46:35;32.03;;;19.98;;
22320;SDS011;11328;53.928;18.522;2023-02-15T01:49:16;36.85;;;21.58;;
22320;SDS011;11328;53.928;18.522;2023-02-15T01:51:47;33.97;;;20.52;;
22320;SDS011;11328;53.928;18.522;2023-02-15T01:54:20;33.95;;;21.67;;
22320;SDS011;11328;53.928;18.522;2023-02-15T01:56:54;34.17;;;19.98;;
22320;SDS011;11328;53.928;18.522;2023-02-15T01:59:28;31.98;;;19.48;;
22320;SDS011;11328;53.928;18.522;2023-02-15T02:01:58;31.55;;;19.38;;
22320;SDS011;11328;53.928;18.522;2023-02-15T02:07:26;30.48;;;19.45;;
22320;SDS011;11328;53.928;18.522;2023-02-15T02:09:55;31.15;;;19.08;;
22320;SDS011;11328;53.928;18.522;2023-02-15T02:12:22;31.17;;;19.33;;
22320;SDS011;11328;53.928;18.522;2023-02-15T02:14:53;33.67;;;18.63;;
22320;SDS011;11328;53.928;18.522;2023-02-15T02:20:36;31.25;;;19.13;;
22320;SDS011;11328;53.928;18.522;2023-02-15T02:23:32;29.55;;;18.77;;
22320;SDS011;11328;53.928;18.522;2023-02-15T02:43:54;27.98;;;18.08;;
22320;SDS011;11328;53.928;18.522;2023-02-15T02:49:31;30.70;;;17.50;;
22320;SDS011;11328;53.928;18.522;2023-02-15T02:52:05;31.55;;;17.63;;
22320;SDS011;11328;53.928;18.522;2023-02-15T02:55:17;28.42;;;17.42;;
22320;SDS011;11328;53.928;18.522;2023-02-15T02:58:03;27.85;;;17.92;;
22320;SDS011;11328;53.928;18.522;2023-02-15T03:00:32;30.00;;;18.17;;
22320;SDS011;11328;53.928;18.522;2023-02-15T03:03:12;29.77;;;18.33;;
22320;SDS011;11328;53.928;18.522;2023-02-15T03:06:44;30.20;;;18.52;;
22320;SDS011;11328;53.928;18.522;2023-02-15T03:09:23;27.90;;;17.73;;
22320;SDS011;11328;53.928;18.522;2023-02-15T03:14:51;31.33;;;18.80;;
22320;SDS011;11328;53.928;18.522;2023-02-15T03:17:27;33.13;;;20.40;;
22320;SDS011;11328;53.928;18.522;2023-02-15T03:20:00;27.92;;;17.48;;
22320;SDS011;11328;53.928;18.522;2023-02-15T03:22:36;30.70;;;17.85;;
22320;SDS011;11328;53.928;18.522;2023-02-15T03:28:07;29.00;;;16.20;;
22320;SDS011;11328;53.928;18.522;2023-02-15T03:33:19;25.25;;;16.02;;
22320;SDS011;11328;53.928;18.522;2023-02-15T03:35:52;31.55;;;16.42;;
22320;SDS011;11328;53.928;18.522;2023-02-15T03:38:36;29.55;;;16.92;;
22320;SDS011;11328;53.928;18.522;2023-02-15T03:41:33;26.75;;;16.10;;
22320;SDS011;11328;53.928;18.522;2023-02-15T03:44:09;30.15;;;17.02;;
22320;SDS011;11328;53.928;18.522;2023-02-15T03:49:36;29.40;;;16.88;;
22320;SDS011;11328;53.928;18.522;2023-02-15T03:52:52;29.88;;;16.45;;
22320;SDS011;11328;53.928;18.522;2023-02-15T03:55:22;31.45;;;16.92;;
22320;SDS011;11328;53.928;18.522;2023-02-15T03:57:49;29.10;;;17.08;;
22320;SDS011;11328;53.928;18.522;2023-02-15T04:00:36;29.15;;;17.10;;
22320;SDS011;11328;53.928;18.522;2023-02-15T04:03:35;29.65;;;16.27;;
22320;SDS011;11328;53.928;18.522;2023-02-15T04:06:08;32.50;;;18.20;;
22320;SDS011;11328;53.928;18.522;2023-02-15T04:08:35;31.92;;;18.13;;
22320;SDS011;11328;53.928;18.522;2023-02-15T04:11:21;35.05;;;18.80;;
22320;SDS011;11328;53.928;18.522;2023-02-15T04:13:48;33.92;;;18.77;;
22320;SDS011;11328;53.928;18.522;2023-02-15T04:16:24;31.27;;;17.55;;
22320;SDS011;11328;53.928;18.522;2023-02-15T04:18:51;32.88;;;18.13;;
22320;SDS011;11328;53.928;18.522;2023-02-15T04:21:37;32.75;;;18.52;;
22320;SDS011;11328;53.928;18.522;2023-02-15T04:24:23;36.78;;;19.13;;
22320;SDS011;11328;53.928;18.522;2023-02-15T04:27:08;35.60;;;19.13;;
22320;SDS011;11328;53.928;18.522;2023-02-15T04:29:36;34.15;;;19.08;;
22320;SDS011;11328;53.928;18.522;2023-02-15T04:32:03;38.42;;;19.63;;
22320;SDS011;11328;53.928;18.522;2023-02-15T04:34:30;36.38;;;19.95;;
22320;SDS011;11328;53.928;18.522;2023-02-15T04:36:57;34.38;;;19.48;;
22320;SDS011;11328;53.928;18.522;2023-02-15T04:39:24;36.20;;;20.00;;
22320;SDS011;11328;53.928;18.522;2023-02-15T04:41:51;36.42;;;19.80;;
22320;SDS011;11328;53.928;18.522;2023-02-15T04:44:19;33.63;;;20.02;;
22320;SDS011;11328;53.928;18.522;2023-02-15T04:46:46;34.25;;;19.52;;
22320;SDS011;11328;53.928;18.522;2023-02-15T04:49:13;38.42;;;19.67;;
22320;SDS011;11328;53.928;18.522;2023-02-15T04:51:41;38.80;;;20.02;;
22320;SDS011;11328;53.928;18.522;2023-02-15T04:54:08;35.50;;;21.00;;
22320;SDS011;11328;53.928;18.522;2023-02-15T04:56:35;43.47;;;20.95;;
22320;SDS011;11328;53.928;18.522;2023-02-15T04:59:04;36.65;;;21.15;;
22320;SDS011;11328;53.928;18.522;2023-02-15T05:01:33;35.83;;;20.85;;
22320;SDS011;11328;53.928;18.522;2023-02-15T05:04:00;38.30;;;20.42;;
22320;SDS011;11328;53.928;18.522;2023-02-15T05:06:28;33.95;;;20.45;;
22320;SDS011;11328;53.928;18.522;2023-02-15T05:08:56;39.78;;;21.23;;
22320;SDS011;11328;53.928;18.522;2023-02-15T05:11:25;35.88;;;20.27;;
22320;SDS011;11328;53.928;18.522;2023-02-15T05:13:53;36.22;;;20.55;;
22320;SDS011;11328;53.928;18.522;2023-02-15T05:16:20;36.92;;;20.05;;
22320;SDS011;11328;53.928;18.522;2023-02-15T05:18:47;33.85;;;20.52;;
22320;SDS011;11328;53.928;18.522;2023-02-15T05:21:14;39.47;;;20.13;;
22320;SDS011;11328;53.928;18.522;2023-02-15T05:23:42;38.05;;;21.27;;
22320;SDS011;11328;53.928;18.522;2023-02-15T05:26:15;34.50;;;20.35;;
22320;SDS011;11328;53.928;18.522;2023-02-15T05:29:04;34.13;;;20.75;;
22320;SDS011;11328;53.928;18.522;2023-02-15T05:31:32;35.97;;;21.25;;
22320;SDS011;11328;53.928;18.522;2023-02-15T05:34:00;39.95;;;22.75;;
22320;SDS011;11328;53.928;18.522;2023-02-15T05:36:27;42.80;;;23.05;;
22320;SDS011;11328;53.928;18.522;2023-02-15T05:38:55;40.78;;;22.95;;
22320;SDS011;11328;53.928;18.522;2023-02-15T05:41:22;44.72;;;24.02;;
22320;SDS011;11328;53.928;18.522;2023-02-15T05:43:49;38.85;;;24.00;;
22320;SDS011;11328;53.928;18.522;2023-02-15T05:46:16;46.22;;;24.35;;
22320;SDS011;11328;53.928;18.522;2023-02-15T05:48:43;42.05;;;24.60;;
22320;SDS011;11328;53.928;18.522;2023-02-15T05:51:11;44.55;;;24.95;;
22320;SDS011;11328;53.928;18.522;2023-02-15T05:53:40;40.80;;;24.83;;
22320;SDS011;11328;53.928;18.522;2023-02-15T05:56:08;48.30;;;25.83;;
22320;SDS011;11328;53.928;18.522;2023-02-15T05:58:38;50.13;;;24.70;;
22320;SDS011;11328;53.928;18.522;2023-02-15T06:01:09;43.80;;;24.67;;
22320;SDS011;11328;53.928;18.522;2023-02-15T06:03:41;54.67;;;26.20;;
22320;SDS011;11328;53.928;18.522;2023-02-15T06:06:09;47.15;;;23.35;;
22320;SDS011;11328;53.928;18.522;2023-02-15T06:08:37;42.03;;;22.85;;
22320;SDS011;11328;53.928;18.522;2023-02-15T06:11:05;41.45;;;22.55;;
22320;SDS011;11328;53.928;18.522;2023-02-15T06:13:33;43.33;;;22.10;;
22320;SDS011;11328;53.928;18.522;2023-02-15T06:16:04;40.72;;;22.05;;
22320;SDS011;11328;53.928;18.522;2023-02-15T06:18:32;46.85;;;22.55;;
22320;SDS011;11328;53.928;18.522;2023-02-15T06:21:00;42.97;;;22.25;;
22320;SDS011;11328;53.928;18.522;2023-02-15T06:23:27;42.58;;;22.05;;
22320;SDS011;11328;53.928;18.522;2023-02-15T06:25:54;48.30;;;23.15;;
22320;SDS011;11328;53.928;18.522;2023-02-15T06:28:22;40.85;;;22.00;;
22320;SDS011;11328;53.928;18.522;2023-02-15T06:30:49;41.90;;;22.70;;
22320;SDS011;11328;53.928;18.522;2023-02-15T06:33:16;48.88;;;22.75;;
22320;SDS011;11328;53.928;18.522;2023-02-15T06:35:44;44.00;;;23.00;;
22320;SDS011;11328;53.928;18.522;2023-02-15T06:38:12;49.33;;;24.35;;
22320;SDS011;11328;53.928;18.522;2023-02-15T06:40:39;45.60;;;24.77;;
22320;SDS011;11328;53.928;18.522;2023-02-15T06:43:06;47.67;;;26.92;;
22320;SDS011;11328;53.928;18.522;2023-02-15T06:45:33;45.70;;;25.02;;
22320;SDS011;11328;53.928;18.522;2023-02-15T06:48:00;40.33;;;23.58;;
22320;SDS011;11328;53.928;18.522;2023-02-15T06:50:28;44.90;;;24.65;;
22320;SDS011;11328;53.928;18.522;2023-02-15T06:52:56;46.80;;;23.63;;
22320;SDS011;11328;53.928;18.522;2023-02-15T06:55:24;48.65;;;25.65;;
22320;SDS011;11328;53.928;18.522;2023-02-15T06:57:52;50.38;;;26.77;;
22320;SDS011;11328;53.928;18.522;2023-02-15T07:00:19;44.83;;;26.17;;
22320;SDS011;11328;53.928;18.522;2023-02-15T07:02:56;42.63;;;25.52;;
22320;SDS011;11328;53.928;18.522;2023-02-15T07:05:25;43.85;;;26.52;;
22320;SDS011;11328;53.928;18.522;2023-02-15T07:07:58;43.45;;;26.05;;
22320;SDS011;11328;53.928;18.522;2023-02-15T07:10:26;38.60;;;23.33;;
22320;SDS011;11328;53.928;18.522;2023-02-15T07:12:54;52.55;;;36.60;;
22320;SDS011;11328;53.928;18.522;2023-02-15T07:15:21;47.60;;;28.85;;
22320;SDS011;11328;53.928;18.522;2023-02-15T07:17:49;43.17;;;29.67;;
22320;SDS011;11328;53.928;18.522;2023-02-15T07:20:18;47.67;;;29.48;;
22320;SDS011;11328;53.928;18.522;2023-02-15T07:22:48;40.13;;;23.60;;
22320;SDS011;11328;53.928;18.522;2023-02-15T07:25:16;37.65;;;22.88;;
22320;SDS011;11328;53.928;18.522;2023-02-15T07:27:45;39.45;;;22.83;;
22320;SDS011;11328;53.928;18.522;2023-02-15T07:30:14;39.80;;;21.95;;
22320;SDS011;11328;53.928;18.522;2023-02-15T07:32:43;37.45;;;22.38;;
22320;SDS011;11328;53.928;18.522;2023-02-15T07:35:31;48.65;;;29.65;;
22320;SDS011;11328;53.928;18.522;2023-02-15T07:37:59;43.65;;;28.05;;
22320;SDS011;11328;53.928;18.522;2023-02-15T07:40:27;45.95;;;27.75;;
22320;SDS011;11328;53.928;18.522;2023-02-15T07:42:56;47.60;;;30.48;;
22320;SDS011;11328;53.928;18.522;2023-02-15T07:45:25;48.88;;;28.27;;
22320;SDS011;11328;53.928;18.522;2023-02-15T07:47:53;46.00;;;28.98;;
22320;SDS011;11328;53.928;18.522;2023-02-15T07:50:20;42.25;;;23.95;;
22320;SDS011;11328;53.928;18.522;2023-02-15T07:52:47;53.00;;;29.30;;
22320;SDS011;11328;53.928;18.522;2023-02-15T07:55:14;44.10;;;24.88;;
22320;SDS011;11328;53.928;18.522;2023-02-15T07:57:42;43.53;;;23.15;;
22320;SDS011;11328;53.928;18.522;2023-02-15T08:00:11;40.17;;;24.20;;
22320;SDS011;11328;53.928;18.522;2023-02-15T08:02:41;42.95;;;25.88;;
22320;SDS011;11328;53.928;18.522;2023-02-15T08:05:09;47.00;;;25.52;;
22320;SDS011;11328;53.928;18.522;2023-02-15T08:07:36;47.53;;;27.23;;
22320;SDS011;11328;53.928;18.522;2023-02-15T08:10:03;52.05;;;27.88;;
22320;SDS011;11328;53.928;18.522;2023-02-15T08:12:30;54.92;;;29.95;;
22320;SDS011;11328;53.928;18.522;2023-02-15T08:14:58;56.58;;;30.48;;
22320;SDS011;11328;53.928;18.522;2023-02-15T08:17:25;53.95;;;28.30;;
22320;SDS011;11328;53.928;18.522;2023-02-15T08:19:52;59.40;;;30.77;;
22320;SDS011;11328;53.928;18.522;2023-02-15T08:22:19;62.38;;;34.45;;
22320;SDS011;11328;53.928;18.522;2023-02-15T08:24:46;61.72;;;33.92;;
22320;SDS011;11328;53.928;18.522;2023-02-15T08:27:13;59.90;;;34.03;;
22320;SDS011;11328;53.928;18.522;2023-02-15T08:29:40;58.90;;;32.72;;
22320;SDS011;11328;53.928;18.522;2023-02-15T08:32:09;55.67;;;30.05;;
22320;SDS011;11328;53.928;18.522;2023-02-15T08:34:39;60.53;;;32.38;;
22320;SDS011;11328;53.928;18.522;2023-02-15T08:37:08;58.88;;;31.25;;
22320;SDS011;11328;53.928;18.522;2023-02-15T08:39:35;55.85;;;32.13;;
22320;SDS011;11328;53.928;18.522;2023-02-15T08:42:03;57.78;;;31.45;;
22320;SDS011;11328;53.928;18.522;2023-02-15T08:44:30;55.20;;;29.55;;
22320;SDS011;11328;53.928;18.522;2023-02-15T08:46:57;56.08;;;31.35;;
22320;SDS011;11328;53.928;18.522;2023-02-15T08:49:30;54.88;;;28.90;;
22320;SDS011;11328;53.928;18.522;2023-02-15T08:51:57;52.05;;;29.27;;
22320;SDS011;11328;53.928;18.522;2023-02-15T08:54:26;51.80;;;27.98;;
22320;SDS011;11328;53.928;18.522;2023-02-15T08:56:53;55.10;;;30.40;;
22320;SDS011;11328;53.928;18.522;2023-02-15T08:59:20;58.13;;;30.05;;
22320;SDS011;11328;53.928;18.522;2023-02-15T09:01:50;50.15;;;28.70;;
22320;SDS011;11328;53.928;18.522;2023-02-15T09:04:18;51.05;;;28.27;;
22320;SDS011;11328;53.928;18.522;2023-02-15T09:06:47;52.95;;;28.85;;
22320;SDS011;11328;53.928;18.522;2023-02-15T09:09:17;52.40;;;28.35;;
22320;SDS011;11328;53.928;18.522;2023-02-15T09:11:47;51.53;;;28.75;;
22320;SDS011;11328;53.928;18.522;2023-02-15T09:14:23;51.40;;;29.05;;
22320;SDS011;11328;53.928;18.522;2023-02-15T09:16:52;51.53;;;29.42;;
22320;SDS011;11328;53.928;18.522;2023-02-15T09:19:21;53.03;;;29.02;;
22320;SDS011;11328;53.928;18.522;2023-02-15T09:21:49;48.90;;;28.23;;
22320;SDS011;11328;53.928;18.522;2023-02-15T09:24:17;52.47;;;29.25;;
22320;SDS011;11328;53.928;18.522;2023-02-15T09:26:45;46.15;;;29.05;;
22320;SDS011;11328;53.928;18.522;2023-02-15T09:29:14;49.88;;;29.70;;
22320;SDS011;11328;53.928;18.522;2023-02-15T09:31:44;47.65;;;28.75;;
22320;SDS011;11328;53.928;18.522;2023-02-15T09:34:16;46.55;;;28.55;;
22320;SDS011;11328;53.928;18.522;2023-02-15T09:36:46;47.00;;;27.85;;
22320;SDS011;11328;53.928;18.522;2023-02-15T09:39:15;47.58;;;28.23;;
22320;SDS011;11328;53.928;18.522;2023-02-15T09:50:23;43.40;;;27.48;;
22320;SDS011;11328;53.928;18.522;2023-02-15T09:58:55;46.42;;;28.17;;
22320;SDS011;11328;53.928;18.522;2023-02-15T10:01:51;49.83;;;30.38;;
22320;SDS011;11328;53.928;18.522;2023-02-15T10:10:00;43.28;;;27.00;;
22320;SDS011;11328;53.928;18.522;2023-02-15T10:12:57;42.83;;;26.92;;
22320;SDS011;11328;53.928;18.522;2023-02-15T10:15:47;41.65;;;27.13;;
22320;SDS011;11328;53.928;18.522;2023-02-15T10:19:14;39.45;;;26.45;;
22320;SDS011;11328;53.928;18.522;2023-02-15T10:25:07;39.30;;;26.23;;
22320;SDS011;11328;53.928;18.522;2023-02-15T10:27:50;41.25;;;26.33;;
22320;SDS011;11328;53.928;18.522;2023-02-15T10:30:19;42.53;;;28.58;;
22320;SDS011;11328;53.928;18.522;2023-02-15T10:33:02;41.03;;;26.20;;
22320;SDS011;11328;53.928;18.522;2023-02-15T10:38:50;35.45;;;24.75;;
22320;SDS011;11328;53.928;18.522;2023-02-15T10:53:23;36.78;;;24.95;;
22320;SDS011;11328;53.928;18.522;2023-02-15T10:56:12;37.03;;;24.60;;
22320;SDS011;11328;53.928;18.522;2023-02-15T11:02:19;43.70;;;26.63;;
22320;SDS011;11328;53.928;18.522;2023-02-15T11:05:16;42.67;;;27.75;;
22320;SDS011;11328;53.928;18.522;2023-02-15T11:07:58;47.20;;;30.33;;
22320;SDS011;11328;53.928;18.522;2023-02-15T11:10:38;49.33;;;32.08;;
22320;SDS011;11328;53.928;18.522;2023-02-15T11:13:15;47.47;;;30.90;;
22320;SDS011;11328;53.928;18.522;2023-02-15T11:15:53;48.28;;;30.58;;
22320;SDS011;11328;53.928;18.522;2023-02-15T11:18:46;44.95;;;28.80;;
22320;SDS011;11328;53.928;18.522;2023-02-15T11:21:22;48.33;;;31.55;;
22320;SDS011;11328;53.928;18.522;2023-02-15T11:24:14;47.20;;;31.05;;
22320;SDS011;11328;53.928;18.522;2023-02-15T11:26:54;42.92;;;28.92;;
22320;SDS011;11328;53.928;18.522;2023-02-15T11:32:32;49.92;;;31.80;;
22320;SDS011;11328;53.928;18.522;2023-02-15T11:37:51;50.45;;;30.80;;
22320;SDS011;11328;53.928;18.522;2023-02-15T11:40:53;49.42;;;31.67;;
22320;SDS011;11328;53.928;18.522;2023-02-15T11:43:34;53.03;;;33.47;;
22320;SDS011;11328;53.928;18.522;2023-02-15T11:46:33;54.33;;;34.20;;
22320;SDS011;11328;53.928;18.522;2023-02-15T11:49:00;48.30;;;33.33;;
22320;SDS011;11328;53.928;18.522;2023-02-15T11:51:29;48.95;;;33.03;;
22320;SDS011;11328;53.928;18.522;2023-02-15T11:53:56;49.90;;;32.22;;
22320;SDS011;11328;53.928;18.522;2023-02-15T11:56:23;49.03;;;33.47;;
22320;SDS011;11328;53.928;18.522;2023-02-15T11:58:54;48.65;;;32.42;;
22320;SDS011;11328;53.928;18.522;2023-02-15T12:04:04;47.45;;;32.55;;
22320;SDS011;11328;53.928;18.522;2023-02-15T12:09:51;47.22;;;32.05;;
22320;SDS011;11328;53.928;18.522;2023-02-15T12:12:34;50.08;;;34.55;;
22320;SDS011;11328;53.928;18.522;2023-02-15T12:15:03;51.13;;;34.72;;
22320;SDS011;11328;53.928;18.522;2023-02-15T12:22:51;47.25;;;31.45;;
22320;SDS011;11328;53.928;18.522;2023-02-15T12:25:52;58.92;;;36.70;;
22320;SDS011;11328;53.928;18.522;2023-02-15T12:31:49;48.85;;;31.27;;
22320;SDS011;11328;53.928;18.522;2023-02-15T12:36:54;59.55;;;39.63;;
22320;SDS011;11328;53.928;18.522;2023-02-15T12:39:29;49.75;;;33.47;;
22320;SDS011;11328;53.928;18.522;2023-02-15T12:42:02;51.38;;;35.80;;
22320;SDS011;11328;53.928;18.522;2023-02-15T12:44:56;51.55;;;35.42;;
22320;SDS011;11328;53.928;18.522;2023-02-15T12:47:30;55.30;;;37.60;;
22320;SDS011;11328;53.928;18.522;2023-02-15T12:50:08;50.28;;;35.50;;
22320;SDS011;11328;53.928;18.522;2023-02-15T12:52:47;84.53;;;59.67;;
22320;SDS011;11328;53.928;18.522;2023-02-15T12:55:52;65.60;;;48.58;;
22320;SDS011;11328;53.928;18.522;2023-02-15T12:58:40;63.03;;;47.15;;
22320;SDS011;11328;53.928;18.522;2023-02-15T13:01:14;60.65;;;45.30;;
22320;SDS011;11328;53.928;18.522;2023-02-15T13:03:55;45.90;;;32.17;;
22320;SDS011;11328;53.928;18.522;2023-02-15T13:06:51;42.57;;;30.97;;
22320;SDS011;11328;53.928;18.522;2023-02-15T13:12:20;39.97;;;29.02;;
22320;SDS011;11328;53.928;18.522;2023-02-15T13:14:53;39.17;;;28.80;;
22320;SDS011;11328;53.928;18.522;2023-02-15T13:17:26;47.42;;;30.02;;
22320;SDS011;11328;53.928;18.522;2023-02-15T13:20:04;40.53;;;28.92;;
22320;SDS011;11328;53.928;18.522;2023-02-15T13:22:57;43.72;;;28.90;;
22320;SDS011;11328;53.928;18.522;2023-02-15T13:25:32;37.70;;;28.13;;
22320;SDS011;11328;53.928;18.522;2023-02-15T13:28:16;40.35;;;29.15;;
22320;SDS011;11328;53.928;18.522;2023-02-15T13:33:35;50.50;;;33.15;;
22320;SDS011;11328;53.928;18.522;2023-02-15T13:39:44;42.55;;;26.08;;
22320;SDS011;11328;53.928;18.522;2023-02-15T13:48:00;41.10;;;27.50;;
22320;SDS011;11328;53.928;18.522;2023-02-15T13:51:25;40.83;;;27.17;;
22320;SDS011;11328;53.928;18.522;2023-02-15T14:05:33;58.28;;;36.80;;
22320;SDS011;11328;53.928;18.522;2023-02-15T14:20:08;45.42;;;32.55;;
22320;SDS011;11328;53.928;18.522;2023-02-15T14:23:11;51.88;;;35.15;;
22320;SDS011;11328;53.928;18.522;2023-02-15T14:26:16;52.75;;;34.67;;
22320;SDS011;11328;53.928;18.522;2023-02-15T14:29:07;49.85;;;33.83;;
22320;SDS011;11328;53.928;18.522;2023-02-15T14:31:47;49.83;;;33.55;;
22320;SDS011;11328;53.928;18.522;2023-02-15T14:34:48;51.53;;;33.78;;
22320;SDS011;11328;53.928;18.522;2023-02-15T14:37:31;54.75;;;36.33;;
22320;SDS011;11328;53.928;18.522;2023-02-15T14:43:52;56.75;;;36.60;;
22320;SDS011;11328;53.928;18.522;2023-02-15T14:49:25;53.30;;;36.80;;
22320;SDS011;11328;53.928;18.522;2023-02-15T14:52:00;56.00;;;37.10;;
22320;SDS011;11328;53.928;18.522;2023-02-15T15:05:33;59.75;;;38.42;;
22320;SDS011;11328;53.928;18.522;2023-02-15T15:08:19;64.15;;;41.15;;
22320;SDS011;11328;53.928;18.522;2023-02-15T15:14:10;59.92;;;40.83;;
22320;SDS011;11328;53.928;18.522;2023-02-15T15:17:00;57.38;;;39.17;;
22320;SDS011;11328;53.928;18.522;2023-02-15T15:22:21;61.63;;;42.25;;
22320;SDS011;11328;53.928;18.522;2023-02-15T15:24:52;65.70;;;43.65;;
22320;SDS011;11328;53.928;18.522;2023-02-15T15:42:13;81.10;;;48.53;;
22320;SDS011;11328;53.928;18.522;2023-02-15T15:50:59;76.38;;;46.95;;
22320;SDS011;11328;53.928;18.522;2023-02-15T15:53:50;66.85;;;43.78;;
22320;SDS011;11328;53.928;18.522;2023-02-15T15:57:04;74.63;;;46.70;;
22320;SDS011;11328;53.928;18.522;2023-02-15T15:59:49;66.53;;;44.58;;
22320;SDS011;11328;53.928;18.522;2023-02-15T16:02:17;67.15;;;44.40;;
22320;SDS011;11328;53.928;18.522;2023-02-15T16:04:49;68.22;;;44.92;;
22320;SDS011;11328;53.928;18.522;2023-02-15T16:12:36;73.57;;;45.78;;
22320;SDS011;11328;53.928;18.522;2023-02-15T16:15:34;75.47;;;46.00;;
22320;SDS011;11328;53.928;18.522;2023-02-15T16:18:16;73.40;;;49.60;;
22320;SDS011;11328;53.928;18.522;2023-02-15T16:29:16;83.32;;;52.60;;
22320;SDS011;11328;53.928;18.522;2023-02-15T16:32:14;77.70;;;48.92;;
22320;SDS011;11328;53.928;18.522;2023-02-15T16:34:55;84.65;;;50.53;;
22320;SDS011;11328;53.928;18.522;2023-02-15T16:37:26;79.75;;;49.78;;
22320;SDS011;11328;53.928;18.522;2023-02-15T16:39:59;77.00;;;49.22;;
22320;SDS011;11328;53.928;18.522;2023-02-15T16:42:26;79.20;;;50.58;;
22320;SDS011;11328;53.928;18.522;2023-02-15T16:44:57;77.57;;;48.33;;
22320;SDS011;11328;53.928;18.522;2023-02-15T16:47:36;70.82;;;46.03;;
22320;SDS011;11328;53.928;18.522;2023-02-15T16:50:20;74.97;;;48.13;;
22320;SDS011;11328;53.928;18.522;2023-02-15T16:53:04;81.10;;;49.35;;
22320;SDS011;11328;53.928;18.522;2023-02-15T16:55:43;77.03;;;49.42;;
22320;SDS011;11328;53.928;18.522;2023-02-15T16:58:29;78.90;;;50.72;;
22320;SDS011;11328;53.928;18.522;2023-02-15T17:01:13;122.10;;;72.00;;
22320;SDS011;11328;53.928;18.522;2023-02-15T17:03:44;96.68;;;58.15;;
22320;SDS011;11328;53.928;18.522;2023-02-15T17:06:19;119.95;;;66.88;;
22320;SDS011;11328;53.928;18.522;2023-02-15T17:09:04;140.05;;;70.93;;
22320;SDS011;11328;53.928;18.522;2023-02-15T17:11:44;118.38;;;62.47;;
22320;SDS011;11328;53.928;18.522;2023-02-15T17:14:13;100.47;;;59.97;;
22320;SDS011;11328;53.928;18.522;2023-02-15T17:16:53;92.50;;;54.83;;
22320;SDS011;11328;53.928;18.522;2023-02-15T17:19:32;93.70;;;56.30;;
22320;SDS011;11328;53.928;18.522;2023-02-15T17:22:14;90.05;;;53.83;;
22320;SDS011;11328;53.928;18.522;2023-02-15T17:24:50;98.95;;;58.70;;
22320;SDS011;11328;53.928;18.522;2023-02-15T17:27:27;96.38;;;57.58;;
22320;SDS011;11328;53.928;18.522;2023-02-15T17:30:00;86.60;;;53.65;;
22320;SDS011;11328;53.928;18.522;2023-02-15T17:35:29;86.68;;;50.97;;
22320;SDS011;11328;53.928;18.522;2023-02-15T17:40:43;104.60;;;59.58;;
22320;SDS011;11328;53.928;18.522;2023-02-15T17:43:11;83.55;;;51.00;;
22320;SDS011;11328;53.928;18.522;2023-02-15T17:45:46;94.45;;;56.42;;
22320;SDS011;11328;53.928;18.522;2023-02-15T17:51:00;100.07;;;57.78;;
22320;SDS011;11328;53.928;18.522;2023-02-15T17:53:31;93.45;;;58.22;;
22320;SDS011;11328;53.928;18.522;2023-02-15T17:55:59;92.32;;;55.47;;
22320;SDS011;11328;53.928;18.522;2023-02-15T17:58:36;92.65;;;54.55;;
22320;SDS011;11328;53.928;18.522;2023-02-15T18:01:06;96.07;;;56.00;;
22320;SDS011;11328;53.928;18.522;2023-02-15T18:04:01;90.65;;;54.10;;
22320;SDS011;11328;53.928;18.522;2023-02-15T18:06:47;97.35;;;55.25;;
22320;SDS011;11328;53.928;18.522;2023-02-15T18:09:34;98.10;;;55.42;;
22320;SDS011;11328;53.928;18.522;2023-02-15T18:12:22;92.43;;;54.63;;
22320;SDS011;11328;53.928;18.522;2023-02-15T18:20:05;96.00;;;54.30;;
22320;SDS011;11328;53.928;18.522;2023-02-15T18:22:44;94.07;;;53.97;;